^^
Saratoga-Weather Station Historical Data
 
Daily Summary for April 18, 2021 Units:  Metric    English   Both
Daily Weekly Monthly Yearly
  Current: High: Low: Average:
Temperature: 10.3 °C 15.2 °C 8.5 °C 11.2 °C
Dew Point: 5.3 °C 6.9 °C 1.8 °C 4.3 °C
Humidity: 71.3% 77.3% 42.7% 63%
Wind Speed: 0km/h 21.3km/h 0km/h 4.5km/h
Wind Gust: 0km/h 27.4km/h - -
WindCalm - - ESE
Pressure: 1015.8 hPa 1015.8 hPa 1013.9 hPa -
Precipitation: 0.2 mm      
 
 
Tabular Data for April 18, 2021
Time Temperature Dew Point Pressure Wind Wind Speed Wind Gust Humidity Rainfall Rate (Hourly) solar
00:03 8.5 °C 4.2 °C 1014.2 hPa Calm     74.3% 0.0 mm 0 W/m2
00:09 8.8 °C 3.7 °C 1014.3 hPa Calm     70.2% 0.0 mm 0 W/m2
00:14 9 °C 3.4 °C 1014.2 hPa Calm     68% 0.0 mm 0 W/m2
00:19 9.2 °C 3.3 °C 1014.2 hPa Calm     66.5% 0.0 mm 0 W/m2
00:24 9.3 °C 3.2 °C 1014.2 hPa Calm     65.8% 0.0 mm 0 W/m2
00:29 9.2 °C 3.3 °C 1014.2 hPa Calm     66.6% 0.0 mm 0 W/m2
00:34 9.1 °C 3.6 °C 1014.2 hPa Calm     68.2% 0.0 mm 0 W/m2
00:39 9 °C 3.4 °C 1014.2 hPa Calm     68% 0.0 mm 0 W/m2
00:44 8.9 °C 4 °C 1014.3 hPa Calm     71.2% 0.0 mm 0 W/m2
00:49 8.8 °C 4.9 °C 1014.3 hPa Calm     76% 0.0 mm 0 W/m2
00:54 8.8 °C 4.8 °C 1014.3 hPa Calm     76.2% 0.0 mm 0 W/m2
00:59 8.8 °C 4.7 °C 1014.3 hPa Calm     75.3% 0.0 mm 0 W/m2
01:04 8.9 °C 4.5 °C 1014.4 hPa Calm     73.8% 0.0 mm 0 W/m2
01:09 9 °C 3.8 °C 1014.3 hPa Calm     70% 0.0 mm 0 W/m2
01:14 9 °C 3.7 °C 1014.4 hPa Calm     69.8% 0.0 mm 0 W/m2
01:19 9 °C 4 °C 1014.3 hPa Calm     71.2% 0.0 mm 0 W/m2
01:24 8.9 °C 3.9 °C 1014.3 hPa Calm     70.8% 0.0 mm 0 W/m2
01:29 8.8 °C 3.9 °C 1014.3 hPa Calm     71.5% 0.0 mm 0 W/m2
01:34 8.7 °C 3.8 °C 1014.3 hPa Calm     71% 0.0 mm 0 W/m2
01:39 8.7 °C 3.9 °C 1014.3 hPa Calm     72% 0.0 mm 0 W/m2
01:44 8.6 °C 4.1 °C 1014.3 hPa Calm     73.5% 0.0 mm 0 W/m2
01:48 8.5 °C 4.3 °C 1014.3 hPa Calm     74.8% 0.0 mm 0 W/m2
01:54 8.5 °C 4.8 °C 1014.2 hPa Calm     77.3% 0.0 mm 0 W/m2
01:59 8.5 °C 4.7 °C 1014.2 hPa Calm     77% 0.0 mm 0 W/m2
02:02 8.6 °C 4.4 °C 1014.2 hPa Calm     75.3% 0.0 mm 0 W/m2
02:09 8.6 °C 3.9 °C 1014.2 hPa Calm     72.4% 0.0 mm 0 W/m2
02:14 8.7 °C 3.8 °C 1014.1 hPa Calm     71.3% 0.0 mm 0 W/m2
02:19 8.8 °C 4.1 °C 1014.1 hPa Calm     72.2% 0.0 mm 0 W/m2
02:24 8.9 °C 4.3 °C 1014.1 hPa Calm     72.8% 0.0 mm 0 W/m2
02:29 8.9 °C 4.4 °C 1014.1 hPa Calm     73.4% 0.0 mm 0 W/m2
02:34 8.8 °C 4.8 °C 1014.1 hPa Calm     75.7% 0.0 mm 0 W/m2
02:39 8.7 °C 4.9 °C 1014.0 hPa Calm     77% 0.0 mm 0 W/m2
02:44 8.7 °C 4.6 °C 1014.1 hPa Calm     75.7% 0.0 mm 0 W/m2
02:48 8.8 °C 4.4 °C 1014.2 hPa Calm     74.3% 0.0 mm 0 W/m2
02:54 8.7 °C 4.7 °C 1014.1 hPa Calm     75.7% 0.0 mm 0 W/m2
02:58 8.7 °C 4.6 °C 1014.1 hPa Calm     75.8% 0.0 mm 0 W/m2
03:04 8.7 °C 4.7 °C 1014.2 hPa Calm     75.8% 0.0 mm 0 W/m2
03:08 8.7 °C 4.7 °C 1014.1 hPa Calm     75.6% 0.0 mm 0 W/m2
03:14 8.9 °C 4.6 °C 1014.1 hPa Calm     74.3% 0.0 mm 0 W/m2
03:19 9 °C 4.7 °C 1014.1 hPa Calm     74.5% 0.0 mm 0 W/m2
03:24 8.9 °C 4.8 °C 1014.0 hPa Calm     75.3% 0.0 mm 0 W/m2
03:29 9 °C 4.6 °C 1014.0 hPa Calm     74.2% 0.0 mm 0 W/m2
03:34 9 °C 4.4 °C 1014.0 hPa Calm     72.7% 0.0 mm 0 W/m2
03:39 9.1 °C 4.5 °C 1013.9 hPa Calm     72.5% 0.0 mm 0 W/m2
03:44 9.1 °C 4.7 °C 1014.0 hPa Calm     73.7% 0.0 mm 0 W/m2
03:49 9 °C 4.6 °C 1013.9 hPa Calm     73.7% 0.0 mm 0 W/m2
03:54 9 °C 4.7 °C 1013.9 hPa Calm     74.3% 0.0 mm 0 W/m2
03:58 9.1 °C 4.3 °C 1013.9 hPa Calm     72% 0.0 mm 0 W/m2
04:04 9.3 °C 4 °C 1013.9 hPa Calm     69.4% 0.0 mm 0 W/m2
04:06 9.4 °C 3.8 °C 1013.9 hPa Calm     68% 0.0 mm 0 W/m2
04:14 9.5 °C 4.6 °C 1013.9 hPa Calm     71.7% 0.0 mm 0 W/m2
04:19 9.5 °C 5 °C 1014.0 hPa East 2.3 km/h 1.4 km/h 73.2% 0.0 mm 0 W/m2
04:24 9.3 °C 4.9 °C 1014.0 hPa SE 4.4 km/h 11.3 km/h 74.2% 0.0 mm 0 W/m2
04:29 9.4 °C 3.9 °C 1013.9 hPa SE 0.8 km/h 3.2 km/h 68.4% 0.0 mm 0 W/m2
04:34 9.7 °C 4 °C 1013.9 hPa Calm   1.6 km/h 67.7% 0.0 mm 0 W/m2
04:39 10.1 °C 3.9 °C 1013.9 hPa Calm     65.3% 0.0 mm 0 W/m2
04:43 10 °C 4.1 °C 1013.9 hPa Calm     66.5% 0.0 mm 0 W/m2
04:49 10 °C 3.5 °C 1013.9 hPa ESE 6.2 km/h 11.3 km/h 64% 0.0 mm 0 W/m2
04:54 10.1 °C 3.7 °C 1013.9 hPa ENE 6.5 km/h 11.3 km/h 64.6% 0.0 mm 0 W/m2
04:58 10.1 °C 3.3 °C 1013.9 hPa NE 10 km/h 9.7 km/h 62.6% 0.0 mm 0 W/m2
05:04 10.4 °C 2.7 °C 1013.9 hPa NNE 10.7 km/h 16.1 km/h 58.7% 0.0 mm 0 W/m2
05:09 10.8 °C 3 °C 1014.0 hPa East 17.3 km/h 9.5 km/h 58.3% 0.0 mm 0 W/m2
05:14 10.6 °C 3 °C 1014.0 hPa ESE 17.1 km/h 19.3 km/h 59.2% 0.0 mm 0 W/m2
05:19 10.8 °C 2.5 °C 1013.9 hPa SE 13.7 km/h 22.5 km/h 56.8% 0.0 mm 0 W/m2
05:24 10.7 °C 3.2 °C 1014.0 hPa ESE 12.4 km/h 19.3 km/h 59.8% 0.0 mm 0 W/m2
05:29 10.1 °C 3.9 °C 1013.9 hPa SSE 6.3 km/h 19.3 km/h 65.2% 0.0 mm 0 W/m2
05:33 9.8 °C 3.9 °C 1014.0 hPa SE 6.9 km/h 8 km/h 66.6% 0.0 mm 0 W/m2
05:39 9.8 °C 3.7 °C 1014.0 hPa SSE 4.8 km/h 9.7 km/h 65.6% 0.0 mm 0 W/m2
05:44 9.9 °C 3.8 °C 1014.0 hPa SE 5.4 km/h 6.4 km/h 65.8% 0.0 mm 0 W/m2
05:49 9.7 °C 4 °C 1014.0 hPa SE 5.9 km/h 6.4 km/h 67.4% 0.0 mm 0 W/m2
05:54 9.7 °C 4 °C 1014.0 hPa ESE 4.1 km/h 9.7 km/h 67.6% 0.0 mm 0 W/m2
05:59 9.7 °C 3.7 °C 1014.1 hPa SE 3.1 km/h 4.8 km/h 66.3% 0.0 mm 0 W/m2
06:04 9.8 °C 3.7 °C 1014.1 hPa SSE 3.9 km/h 4.8 km/h 66.2% 0.0 mm 0 W/m2
06:09 9.6 °C 3.8 °C 1014.2 hPa SSE 4.1 km/h 4.8 km/h 67% 0.0 mm 0 W/m2
06:14 9.5 °C 3.9 °C 1014.2 hPa SSE 3.1 km/h 4.8 km/h 67.8% 0.0 mm 0 W/m2
06:19 9.5 °C 3.8 °C 1014.2 hPa SSE 2.1 km/h 4.8 km/h 67.8% 0.0 mm 0 W/m2
06:24 9.5 °C 3.7 °C 1014.2 hPa SE 5.4 km/h 4.8 km/h 67.2% 0.0 mm 0 W/m2
06:29 9.6 °C 3.6 °C 1014.2 hPa SE 5.2 km/h 8 km/h 66% 0.0 mm 0 W/m2
06:33 9.8 °C 3.4 °C 1014.2 hPa SE 4.2 km/h 6.4 km/h 64.4% 0.0 mm 0 W/m2
06:39 9.9 °C 3.3 °C 1014.2 hPa SE 0.5 km/h 6.4 km/h 63.8% 0.0 mm 0 W/m2
06:44 9.9 °C 3.4 °C 1014.2 hPa Calm     64% 0.0 mm 0 W/m2
06:49 9.8 °C 3.5 °C 1014.2 hPa SE 0.3 km/h 0.2 km/h 64.7% 0.0 mm 5 W/m2
06:54 9.8 °C 3.5 °C 1014.2 hPa ESE 1.2 km/h 1.6 km/h 64.8% 0.0 mm 9 W/m2
06:59 9.9 °C 3.2 °C 1014.2 hPa ESE 4.9 km/h 3.4 km/h 63% 0.0 mm 12 W/m2
07:03 9.9 °C 3.3 °C 1014.2 hPa ESE 3.1 km/h 8 km/h 63.8% 0.0 mm 16 W/m2
07:09 9.8 °C 3.4 °C 1014.2 hPa SE 5 km/h 4.8 km/h 64.4% 0.0 mm 26 W/m2
07:14 9.7 °C 3.4 °C 1014.3 hPa SE 5.6 km/h 6.4 km/h 64.8% 0.0 mm 37 W/m2
07:19 9.6 °C 3.4 °C 1014.3 hPa ESE 5.1 km/h 6.4 km/h 65% 0.0 mm 47 W/m2
07:24 9.6 °C 3.5 °C 1014.3 hPa SE 5.2 km/h 4.8 km/h 65.8% 0.0 mm 53 W/m2
07:29 9.6 °C 3.6 °C 1014.4 hPa Calm     66.4% 0.0 mm 62 W/m2
07:34 9.6 °C 3.6 °C 1014.5 hPa ESE 0.6 km/h 1 km/h 66.4% 0.0 mm 72 W/m2
07:38 9.6 °C 3.7 °C 1014.5 hPa ESE 0.9 km/h 3.2 km/h 66.8% 0.0 mm 83 W/m2
07:44 9.6 °C 3.8 °C 1014.5 hPa ESE 3.9 km/h 3.2 km/h 67% 0.0 mm 98 W/m2
07:49 9.7 °C 3.8 °C 1014.5 hPa SE 1.9 km/h 1.6 km/h 67% 0.0 mm 114 W/m2
07:54 9.8 °C 3.9 °C 1014.5 hPa Calm     67% 0.0 mm 123 W/m2
07:59 9.8 °C 3.8 °C 1014.6 hPa Calm     66.3% 0.0 mm 107 W/m2
08:04 9.8 °C 3.8 °C 1014.7 hPa Calm     66.2% 0.0 mm 113 W/m2
08:09 9.8 °C 3.8 °C 1014.7 hPa Calm     66.2% 0.0 mm 109 W/m2
08:14 9.8 °C 3.8 °C 1014.7 hPa SE 2.1 km/h 3.1 km/h 66.2% 0.0 mm 109 W/m2
08:19 9.8 °C 3.8 °C 1014.7 hPa SE 3.1 km/h 4.8 km/h 66.2% 0.0 mm 109 W/m2
08:24 9.8 °C 3.8 °C 1014.7 hPa Calm   3.2 km/h 66% 0.0 mm 113 W/m2
08:29 9.9 °C 4.2 °C 1014.7 hPa Calm     67.4% 0.0 mm 121 W/m2
08:34 10 °C 4.5 °C 1014.8 hPa Calm     68.8% 0.0 mm 137 W/m2
08:39 10 °C 4.4 °C 1014.8 hPa Calm     68% 0.0 mm 165 W/m2
08:44 10.1 °C 4 °C 1014.9 hPa Calm     65.8% 0.0 mm 174 W/m2
08:49 10.3 °C 4 °C 1014.9 hPa Calm     65% 0.0 mm 185 W/m2
08:54 10.4 °C 3.6 °C 1014.9 hPa SE 2.3 km/h 1.3 km/h 62.8% 0.0 mm 192 W/m2
08:59 10.6 °C 3.5 °C 1014.9 hPa SE 3.6 km/h 4.8 km/h 61.5% 0.0 mm 188 W/m2
09:04 10.7 °C 3.4 °C 1014.9 hPa SE 3.7 km/h 6.4 km/h 61% 0.0 mm 209 W/m2
09:09 10.7 °C 3.6 °C 1014.9 hPa SE 6.8 km/h 6.4 km/h 61.5% 0.0 mm 253 W/m2
09:14 10.8 °C 3.8 °C 1014.9 hPa SE 1.9 km/h 11.3 km/h 62% 0.0 mm 290 W/m2
09:19 10.9 °C 4 °C 1014.9 hPa Calm   6.4 km/h 62.3% 0.0 mm 334 W/m2
09:24 10.9 °C 4 °C 1015.0 hPa ESE 0.5 km/h 0.6 km/h 62.8% 0.2 mm 304 W/m2
09:29 11 °C 4.3 °C 1015.0 hPa ESE 4.4 km/h 3.2 km/h 63.4% 0.2 mm 329 W/m2
09:34 11.2 °C 4.7 °C 1015.0 hPa ESE 2 km/h 6.4 km/h 64.2% 0.2 mm 420 W/m2
09:39 11.4 °C 4.9 °C 1015.0 hPa NNE 1.1 km/h 4.8 km/h 64.2% 0.2 mm 418 W/m2
09:44 11.5 °C 4.9 °C 1015.0 hPa Calm     63.8% 0.2 mm 369 W/m2
09:47 11.5 °C 4.7 °C 1014.9 hPa Calm     63% 0.2 mm 369 W/m2
09:54 11.5 °C 4 °C 1014.9 hPa Calm     60.3% 0.2 mm 200 W/m2
09:59 11.5 °C 4.2 °C 1014.9 hPa Calm     60.8% 0.2 mm 197 W/m2
10:04 11.5 °C 4 °C 1014.9 hPa SE 7.4 km/h 6.3 km/h 60% 0.2 mm 188 W/m2
10:09 11.6 °C 3.9 °C 1014.9 hPa SE 6.5 km/h 11.3 km/h 59.3% 0.2 mm 186 W/m2
10:14 11.6 °C 3.7 °C 1015.0 hPa ESE 8.3 km/h 9.7 km/h 58.4% 0.2 mm 195 W/m2
10:19 11.6 °C 3.8 °C 1015.0 hPa East 8.8 km/h 11.3 km/h 58.8% 0.2 mm 195 W/m2
10:22 11.6 °C 3.8 °C 1015.0 hPa NE 8.6 km/h 6.1 km/h 59% 0.2 mm 195 W/m2
10:28 11.6 °C 4.1 °C 1015.1 hPa ENE 6.3 km/h 11.3 km/h 60% 0.0 mm 200 W/m2
10:34 11.6 °C 4.3 °C 1015.1 hPa NE 9.9 km/h 11.3 km/h 61% 0.0 mm 216 W/m2
10:39 11.5 °C 4.4 °C 1015.1 hPa ENE 9.2 km/h 12.9 km/h 61.8% 0.0 mm 225 W/m2
10:44 11.5 °C 4.3 °C 1015.1 hPa ENE 11.9 km/h 12.2 km/h 61.3% 0.0 mm 223 W/m2
10:49 11.6 °C 4.6 °C 1015.1 hPa East 11.1 km/h 19.3 km/h 62.3% 0.0 mm 251 W/m2
10:53 11.7 °C 4.8 °C 1015.2 hPa ENE 7.9 km/h 11.3 km/h 62.8% 0.0 mm 253 W/m2
10:59 11.7 °C 4.8 °C 1015.2 hPa East 0.6 km/h 11.3 km/h 62.8% 0.0 mm 241 W/m2
11:04 11.7 °C 4.6 °C 1015.2 hPa SE 9.4 km/h 9.7 km/h 62.2% 0.0 mm 227 W/m2
11:09 11.6 °C 4.4 °C 1015.2 hPa ESE 12.5 km/h 14.5 km/h 61.5% 0.0 mm 214 W/m2
11:14 11.6 °C 4.2 °C 1015.2 hPa East 12.9 km/h 16.1 km/h 60.2% 0.0 mm 200 W/m2
11:19 11.8 °C 4.2 °C 1015.2 hPa ESE 11.7 km/h 16.1 km/h 59.7% 0.0 mm 221 W/m2
11:24 11.8 °C 3.9 °C 1015.2 hPa East 11.5 km/h 14.5 km/h 58.7% 0.0 mm 257 W/m2
11:29 11.8 °C 3.9 °C 1015.3 hPa East 13.4 km/h 14.5 km/h 58.8% 0.0 mm 371 W/m2
11:33 11.8 °C 4.1 °C 1015.3 hPa ESE 13.1 km/h 16.1 km/h 59.3% 0.0 mm 468 W/m2
11:39 11.8 °C 4 °C 1015.3 hPa East 12.8 km/h 16.1 km/h 58.8% 0.0 mm 450 W/m2
11:44 12 °C 4.1 °C 1015.3 hPa ESE 10.2 km/h 16.1 km/h 58.5% 0.0 mm 399 W/m2
11:48 12 °C 3.9 °C 1015.3 hPa East 12.8 km/h 16.1 km/h 57.6% 0.0 mm 452 W/m2
11:54 12 °C 3.8 °C 1015.3 hPa East 15.2 km/h 16.1 km/h 57.4% 0.0 mm 403 W/m2
11:59 11.9 °C 3.9 °C 1015.3 hPa ENE 15.6 km/h 19.3 km/h 58.4% 0.0 mm 490 W/m2
12:04 12 °C 4.1 °C 1015.3 hPa East 12.4 km/h 19.3 km/h 58.5% 0.0 mm 490 W/m2
12:09 12 °C 3.5 °C 1015.3 hPa East 13.9 km/h 14.5 km/h 56.2% 0.0 mm 352 W/m2
12:14 12.1 °C 3.8 °C 1015.2 hPa ESE 8.1 km/h 16.1 km/h 56.8% 0.0 mm 313 W/m2
12:19 12.2 °C 3.8 °C 1015.2 hPa ESE 11.5 km/h 14.5 km/h 56.4% 0.0 mm 281 W/m2
12:23 12.1 °C 3.4 °C 1015.2 hPa ESE 14.4 km/h 16.1 km/h 55.4% 0.0 mm 279 W/m2
12:29 12.1 °C 3.5 °C 1015.1 hPa ESE 11.4 km/h 16.1 km/h 55.3% 0.0 mm 302 W/m2
12:34 12.2 °C 3.3 °C 1015.1 hPa ESE 11.7 km/h 16.1 km/h 54.5% 0.0 mm 318 W/m2
12:39 12.2 °C 3.5 °C 1015.1 hPa SE 9.7 km/h 16.1 km/h 55.4% 0.0 mm 355 W/m2
12:44 12.3 °C 3.4 °C 1015.0 hPa ESE 8.4 km/h 12.9 km/h 54.4% 0.0 mm 431 W/m2
12:49 12.4 °C 3 °C 1015.1 hPa ESE 11 km/h 12.9 km/h 53% 0.0 mm 399 W/m2
12:54 12.3 °C 3.1 °C 1015.1 hPa ESE 7.5 km/h 12.9 km/h 53.6% 0.0 mm 343 W/m2
12:59 12.4 °C 2.9 °C 1015.0 hPa SSE 6.9 km/h 8 km/h 52.5% 0.0 mm 322 W/m2
13:04 12.2 °C 2.6 °C 1015.0 hPa SSE 7.6 km/h 6.1 km/h 51.8% 0.0 mm 348 W/m2
13:08 12.4 °C 2.9 °C 1015.0 hPa SE 8.3 km/h 9.7 km/h 52.4% 0.0 mm 394 W/m2
13:14 12.6 °C 3.1 °C 1014.9 hPa SE 7.8 km/h 11.3 km/h 52.7% 0.0 mm 582 W/m2
13:19 12.7 °C 3 °C 1014.8 hPa ESE 7.7 km/h 11.3 km/h 51.8% 0.0 mm 550 W/m2
13:24 12.7 °C 3 °C 1014.8 hPa ESE 4.4 km/h 9.7 km/h 51.6% 0.0 mm 772 W/m2
13:27 13.1 °C 3.1 °C 1014.7 hPa SSE 4.5 km/h 8 km/h 51% 0.0 mm 830 W/m2
13:34 13.4 °C 2.2 °C 1014.7 hPa ESE 7.9 km/h 8 km/h 46.6% 0.0 mm 786 W/m2
13:39 13.4 °C 2 °C 1014.6 hPa SE 9.7 km/h 9.7 km/h 46% 0.0 mm 691 W/m2
13:44 13.5 °C 2.4 °C 1014.6 hPa ESE 6.5 km/h 12.9 km/h 47.2% 0.0 mm 742 W/m2
13:48 13.9 °C 3 °C 1014.5 hPa ESE 6.2 km/h 8 km/h 47.8% 0.0 mm 795 W/m2
13:54 13.8 °C 3.3 °C 1014.5 hPa ESE 11.4 km/h 12.9 km/h 49% 0.0 mm 828 W/m2
13:58 13.9 °C 3.1 °C 1014.4 hPa SSE 13.2 km/h 14.5 km/h 48.2% 0.0 mm 830 W/m2
14:04 13.8 °C 3.3 °C 1014.5 hPa ESE 7.9 km/h 16.1 km/h 49.2% 0.0 mm 826 W/m2
14:09 14.1 °C 3.1 °C 1014.4 hPa SE 10 km/h 8.9 km/h 47.7% 0.0 mm 817 W/m2
14:14 14.1 °C 2.7 °C 1014.4 hPa SSE 9.4 km/h 6.8 km/h 46% 0.0 mm 800 W/m2
14:19 14.1 °C 2.8 °C 1014.4 hPa SSE 7.8 km/h 11.3 km/h 46.5% 0.0 mm 798 W/m2
14:24 14.2 °C 2.6 °C 1014.4 hPa ESE 12.1 km/h 10 km/h 45.6% 0.0 mm 795 W/m2
14:29 14.2 °C 2.3 °C 1014.4 hPa ESE 5.5 km/h 16.1 km/h 44.6% 0.0 mm 780 W/m2
14:34 14.3 °C 2.3 °C 1014.3 hPa ESE 7.1 km/h 11.3 km/h 44.4% 0.0 mm 780 W/m2
14:38 14.5 °C 2.7 °C 1014.3 hPa ESE 8.3 km/h 16.1 km/h 45% 0.0 mm 773 W/m2
14:44 14.4 °C 2.2 °C 1014.3 hPa ESE 12.8 km/h 19.3 km/h 43.7% 0.0 mm 770 W/m2
14:49 14.3 °C 2.2 °C 1014.3 hPa ESE 10.9 km/h 16.1 km/h 44.2% 0.0 mm 761 W/m2
14:54 14.4 °C 2.2 °C 1014.3 hPa SE 6.9 km/h 14.5 km/h 43.7% 0.0 mm 756 W/m2
14:57 14.4 °C 1.8 °C 1014.2 hPa SE 11.4 km/h 8.7 km/h 42.7% 0.0 mm 751 W/m2
15:04 14.4 °C 2.1 °C 1014.2 hPa ENE 10.4 km/h 14.5 km/h 43.4% 0.0 mm 745 W/m2
15:09 14.6 °C 2.4 °C 1014.0 hPa SE 7.2 km/h 14.5 km/h 43.8% 0.0 mm 740 W/m2
15:12 14.6 °C 2.3 °C 1014.0 hPa SE 8 km/h 11.3 km/h 43.5% 0.0 mm 705 W/m2
15:19 14.7 °C 2.5 °C 1014.0 hPa SSE 6 km/h 11.3 km/h 43.9% 0.0 mm 726 W/m2
15:24 14.7 °C 2.5 °C 1014.0 hPa South 7.5 km/h 9.7 km/h 43.8% 0.0 mm 729 W/m2
15:29 15.1 °C 2.8 °C 1014.0 hPa South 4.5 km/h 11.3 km/h 43.8% 0.0 mm 719 W/m2
15:34 15.1 °C 3 °C 1014.0 hPa SSE 3.7 km/h 1.8 km/h 44.2% 0.0 mm 722 W/m2
15:39 15.2 °C 2.9 °C 1014.0 hPa South 4.8 km/h 3.4 km/h 43.7% 0.0 mm 686 W/m2
15:43 14.7 °C 2.9 °C 1014.0 hPa SE 8.6 km/h 8 km/h 45.2% 0.0 mm 220 W/m2
15:49 14.5 °C 3 °C 1014.0 hPa SSE 5.3 km/h 11.3 km/h 45.8% 0.0 mm 302 W/m2
15:54 14.5 °C 2.9 °C 1014.0 hPa ESE 3.7 km/h 8 km/h 45.4% 0.0 mm 705 W/m2
15:59 14.7 °C 3 °C 1014.0 hPa SSE 3.4 km/h 4.8 km/h 45.5% 0.0 mm 274 W/m2
16:04 14.7 °C 3 °C 1013.9 hPa South 3 km/h 4.8 km/h 45.3% 0.0 mm 274 W/m2
16:09 14.7 °C 2.8 °C 1014.0 hPa SSE 5.6 km/h 4.8 km/h 44.7% 0.0 mm 248 W/m2
16:14 14.5 °C 3.3 °C 1013.9 hPa ESE 5.6 km/h 1.8 km/h 46.8% 0.0 mm 162 W/m2
16:19 14.5 °C 3.6 °C 1013.9 hPa ESE 3.9 km/h 12.9 km/h 47.8% 0.0 mm 116 W/m2
16:24 14.5 °C 3.8 °C 1014.0 hPa NE 8.3 km/h 9.7 km/h 48.8% 0.0 mm 83 W/m2
16:29 14 °C 5.1 °C 1014.3 hPa East 15.9 km/h 18.2 km/h 55.2% 0.0 mm 69 W/m2
16:34 13.2 °C 5.5 °C 1014.3 hPa ENE 21.3 km/h 25.7 km/h 59.7% 0.0 mm 77 W/m2
16:38 12.5 °C 5.7 °C 1014.3 hPa ENE 20.2 km/h 27.4 km/h 63% 0.0 mm 90 W/m2
16:44 12 °C 6.5 °C 1014.3 hPa NE 16.7 km/h 25.7 km/h 68.8% 0.0 mm 90 W/m2
16:49 11.7 °C 6.7 °C 1014.3 hPa ENE 15.2 km/h 22.5 km/h 71.7% 0.0 mm 98 W/m2
16:54 11.5 °C 6.9 °C 1014.3 hPa ENE 15.7 km/h 7.7 km/h 73.2% 0.0 mm 116 W/m2
16:59 11.6 °C 6.9 °C 1014.2 hPa ENE 9 km/h 7.9 km/h 73.2% 0.0 mm 137 W/m2
17:03 11.6 °C 6.7 °C 1014.2 hPa NNE 10.2 km/h 7.4 km/h 72% 0.0 mm 141 W/m2
17:09 11.7 °C 6.6 °C 1014.2 hPa NE 7.4 km/h 12.9 km/h 71% 0.0 mm 141 W/m2
17:14 11.9 °C 6.5 °C 1014.2 hPa ENE 9.5 km/h 11.3 km/h 69.6% 0.0 mm 127 W/m2
17:19 12 °C 6.1 °C 1014.2 hPa NE 14.1 km/h 16.1 km/h 67.2% 0.0 mm 125 W/m2
17:24 12 °C 5.9 °C 1014.2 hPa NE 14.9 km/h 19.3 km/h 66.3% 0.0 mm 127 W/m2
17:29 12.1 °C 5.9 °C 1014.2 hPa NE 11.2 km/h 19.3 km/h 66% 0.0 mm 120 W/m2
17:34 12.1 °C 6 °C 1014.2 hPa NNE 12.6 km/h 6 km/h 66.3% 0.0 mm 120 W/m2
17:39 12.1 °C 6 °C 1014.1 hPa NNE 10.9 km/h 12.9 km/h 66.3% 0.0 mm 121 W/m2
17:44 12.1 °C 6 °C 1014.2 hPa North 12.7 km/h 14.5 km/h 66.3% 0.0 mm 121 W/m2
17:49 12.1 °C 5.9 °C 1014.2 hPa North 9.5 km/h 8 km/h 66% 0.0 mm 118 W/m2
17:53 12.1 °C 5.8 °C 1014.2 hPa NE 11.2 km/h 7.4 km/h 65.5% 0.0 mm 111 W/m2
17:59 12.1 °C 5.7 °C 1014.3 hPa NNE 9.3 km/h 11.3 km/h 64.8% 0.0 mm 120 W/m2
18:04 12.2 °C 5.8 °C 1014.2 hPa NNE 9 km/h 11.3 km/h 65.2% 0.0 mm 137 W/m2
18:09 12.3 °C 5.9 °C 1014.3 hPa NNE 3.4 km/h 11.3 km/h 64.8% 0.0 mm 160 W/m2
18:14 12.4 °C 5.9 °C 1014.2 hPa North 1.3 km/h 8 km/h 64.8% 0.0 mm 148 W/m2
18:19 12.5 °C 6 °C 1014.3 hPa NNE 6.3 km/h 8 km/h 64.5% 0.0 mm 185 W/m2
18:24 12.7 °C 6 °C 1014.3 hPa NE 8 km/h 8 km/h 63.7% 0.0 mm 207 W/m2
18:29 12.9 °C 5.9 °C 1014.2 hPa NE 6.9 km/h 12.9 km/h 62.6% 0.0 mm 207 W/m2
18:34 13 °C 5.8 °C 1014.2 hPa NE 6.8 km/h 9.7 km/h 61.3% 0.0 mm 204 W/m2
18:39 13.2 °C 5.7 °C 1014.2 hPa NE 6.1 km/h 9.7 km/h 60.6% 0.0 mm 200 W/m2
18:44 13.2 °C 5.8 °C 1014.2 hPa NNE 4.7 km/h 6.4 km/h 60.8% 0.0 mm 125 W/m2
18:49 13.2 °C 5 °C 1014.2 hPa East 8.3 km/h 8.7 km/h 57.5% 0.0 mm 86 W/m2
18:54 13.2 °C 4 °C 1014.4 hPa ENE 6.6 km/h 12.9 km/h 53.5% 0.0 mm 91 W/m2
18:59 13.2 °C 3.9 °C 1014.4 hPa East 1.9 km/h 1.4 km/h 53.6% 0.0 mm 132 W/m2
19:04 13.2 °C 3.9 °C 1014.4 hPa ENE 1.2 km/h 1.9 km/h 53.5% 0.0 mm 134 W/m2
19:09 13.2 °C 4 °C 1014.3 hPa East 4.5 km/h 4.3 km/h 53.5% 0.0 mm 114 W/m2
19:14 13.2 °C 4.1 °C 1014.4 hPa ESE 1.5 km/h 1.6 km/h 54% 0.0 mm 67 W/m2
19:19 13.1 °C 4.2 °C 1014.4 hPa Calm   3.2 km/h 54.7% 0.0 mm 67 W/m2
19:24 13 °C 4.3 °C 1014.4 hPa Calm     55.3% 0.0 mm 63 W/m2
19:29 13 °C 4.3 °C 1014.5 hPa Calm     55.6% 0.0 mm 56 W/m2
19:34 13 °C 4.4 °C 1014.5 hPa Calm     55.7% 0.0 mm 46 W/m2
19:37 12.9 °C 4.4 °C 1014.6 hPa Calm     56.3% 0.0 mm 33 W/m2
19:44 12.8 °C 5.2 °C 1014.6 hPa Calm     59.8% 0.0 mm 23 W/m2
19:49 12.7 °C 5.6 °C 1014.6 hPa Calm     62% 0.0 mm 18 W/m2
19:53 12.6 °C 5.8 °C 1014.6 hPa Calm     63.2% 0.0 mm 12 W/m2
19:59 12.6 °C 6 °C 1014.6 hPa Calm     64.3% 0.0 mm 11 W/m2
20:04 12.5 °C 6.1 °C 1014.6 hPa Calm     65% 0.0 mm 7 W/m2
20:08 12.4 °C 6 °C 1014.6 hPa Calm     65% 0.0 mm 5 W/m2
20:12 12.3 °C 6.1 °C 1014.7 hPa Calm     65.8% 0.0 mm 0 W/m2
20:19 12.1 °C 6.1 °C 1014.7 hPa Calm     66.7% 0.0 mm 0 W/m2
20:24 12 °C 6.1 °C 1014.8 hPa Calm     67% 0.0 mm 0 W/m2
20:29 11.9 °C 6.2 °C 1014.8 hPa Calm     67.8% 0.0 mm 0 W/m2
20:33 11.8 °C 6.1 °C 1014.8 hPa Calm     68% 0.0 mm 0 W/m2
20:39 11.8 °C 6.2 °C 1014.9 hPa Calm     68.3% 0.0 mm 0 W/m2
20:44 11.8 °C 6.1 °C 1014.9 hPa Calm     68.4% 0.0 mm 0 W/m2
20:49 11.7 °C 6.1 °C 1015.0 hPa Calm     68.3% 0.0 mm 0 W/m2
20:54 11.6 °C 6.1 °C 1015.0 hPa Calm     69% 0.0 mm 0 W/m2
20:59 11.5 °C 6 °C 1015.1 hPa Calm     69% 0.0 mm 0 W/m2
21:02 11.5 °C 6 °C 1015.2 hPa Calm     69% 0.0 mm 0 W/m2
21:09 11.4 °C 5.8 °C 1015.3 hPa East 4.5 km/h 3.7 km/h 68.4% 0.0 mm 0 W/m2
21:14 11.3 °C 5.7 °C 1015.4 hPa East 5.8 km/h 8 km/h 68.7% 0.0 mm 0 W/m2
21:19 11.2 °C 5.7 °C 1015.4 hPa East 5.3 km/h 8 km/h 68.8% 0.0 mm 0 W/m2
21:22 11.2 °C 5.5 °C 1015.4 hPa East 5.7 km/h 8 km/h 68.3% 0.0 mm 0 W/m2
21:29 11.1 °C 5.5 °C 1015.5 hPa East 3.6 km/h 8 km/h 68.3% 0.0 mm 0 W/m2
21:34 11 °C 5.4 °C 1015.5 hPa East 3.5 km/h 3.2 km/h 68.3% 0.0 mm 0 W/m2
21:39 11 °C 5.3 °C 1015.6 hPa East 4.1 km/h 4.8 km/h 68% 0.0 mm 0 W/m2
21:44 10.9 °C 5.3 °C 1015.6 hPa East 2.6 km/h 4.8 km/h 68% 0.0 mm 0 W/m2
21:49 10.9 °C 5.2 °C 1015.6 hPa East 2.7 km/h 4.8 km/h 68% 0.0 mm 0 W/m2
21:54 10.8 °C 5.2 °C 1015.6 hPa East 0.5 km/h 3.2 km/h 68.2% 0.0 mm 0 W/m2
21:59 10.8 °C 5.2 °C 1015.7 hPa Calm   3.2 km/h 68.3% 0.0 mm 0 W/m2
22:01 10.8 °C 5.3 °C 1015.7 hPa Calm     69% 0.0 mm 0 W/m2
22:07 10.7 °C 5.2 °C 1015.7 hPa Calm     69% 0.0 mm 0 W/m2
22:14 10.7 °C 5 °C 1015.7 hPa Calm     68.1% 0.0 mm 0 W/m2
22:19 10.7 °C 5 °C 1015.7 hPa Calm     68.2% 0.0 mm 0 W/m2
22:23 10.6 °C 5.1 °C 1015.7 hPa Calm     68.8% 0.0 mm 0 W/m2
22:29 10.6 °C 5.1 °C 1015.6 hPa Calm     68.8% 0.0 mm 0 W/m2
22:33 10.5 °C 5.1 °C 1015.6 hPa Calm     69% 0.0 mm 0 W/m2
22:39 10.4 °C 5 °C 1015.6 hPa Calm     69.2% 0.0 mm 0 W/m2
22:44 10.3 °C 5.1 °C 1015.7 hPa Calm     69.8% 0.0 mm 0 W/m2
22:49 10.3 °C 5 °C 1015.7 hPa Calm     70% 0.0 mm 0 W/m2
22:54 10.2 °C 5 °C 1015.6 hPa Calm     70% 0.0 mm 0 W/m2
22:58 10.2 °C 4.9 °C 1015.7 hPa Calm     70% 0.0 mm 0 W/m2
23:03 10.2 °C 5 °C 1015.7 hPa Calm     70% 0.0 mm 0 W/m2
23:09 10.2 °C 5 °C 1015.8 hPa Calm     70.3% 0.0 mm 0 W/m2
23:14 10.1 °C 5.1 °C 1015.8 hPa Calm     71% 0.0 mm 0 W/m2
23:18 10.1 °C 5.1 °C 1015.8 hPa Calm     71% 0.0 mm 0 W/m2
23:24 10.2 °C 5.2 °C 1015.8 hPa Calm     71.2% 0.0 mm 0 W/m2
23:28 10.3 °C 5.3 °C 1015.8 hPa Calm     71.3% 0.0 mm 0 W/m2
Lodi Weather
Compliments of Weather Underground - 3.5 mb